Time;durP1;ratioP1;P1;durP2;ratioP2;P2;SDS_P1;SDS_P2;PMS_P1;PMS_P2;Temp;Humidity;BMP_temperature;BMP_pressure;BME280_temperature;BME280_humidity;BME280_pressure;Samples;Min_cycle;Max_cycle;Signal;HPM_P1;HPM_P2
2020/12/11 00:02:07;;;;;;;17.03;10.97;;;1.40;99.90;;;;;;4994256;28;20177;-66
2020/12/11 00:04:33;;;;;;;14.23;9.97;;;1.40;99.90;;;;;;5001401;28;20180;-66
2020/12/11 00:07:00;;;;;;;15.83;10.90;;;1.40;99.90;;;;;;5014068;28;20238;-66
2020/12/11 00:09:27;;;;;;;14.70;11.07;;;1.40;99.90;;;;;;5008701;28;20185;-66
2020/12/11 00:11:53;;;;;;;15.47;10.23;;;1.30;99.90;;;;;;4994189;28;20578;-66
2020/12/11 00:14:19;;;;;;;16.60;10.57;;;1.30;99.90;;;;;;4998095;28;20180;-67
2020/12/11 00:16:45;;;;;;;13.03;9.73;;;1.30;99.90;;;;;;5014159;28;20215;-66
2020/12/11 00:19:11;;;;;;;15.70;10.80;;;1.30;99.90;;;;;;5011559;28;20176;-66
2020/12/11 00:21:40;;;;;;;16.03;10.77;;;1.30;99.90;;;;;;4998062;28;20199;-67
2020/12/11 00:24:07;;;;;;;15.07;10.67;;;1.20;99.90;;;;;;5013823;28;20547;-66
2020/12/11 00:26:32;;;;;;;13.40;9.63;;;1.20;99.90;;;;;;4995420;28;20201;-64
2020/12/11 00:28:58;;;;;;;16.70;11.03;;;1.20;99.90;;;;;;4995001;28;20181;-65
2020/12/11 00:31:25;;;;;;;12.80;9.83;;;1.20;99.90;;;;;;5013330;28;20227;-64
2020/12/11 00:33:51;;;;;;;15.03;10.27;;;1.30;99.90;;;;;;5014993;28;20183;-63
2020/12/11 00:36:17;;;;;;;12.93;9.53;;;1.30;99.90;;;;;;4996169;28;20552;-61
2020/12/11 00:38:43;;;;;;;14.87;9.40;;;1.30;99.90;;;;;;4995850;28;20184;-64
2020/12/11 00:41:08;;;;;;;16.53;9.53;;;1.30;99.90;;;;;;5009704;28;20176;-66
2020/12/11 00:43:35;;;;;;;13.77;9.70;;;1.30;99.90;;;;;;5014664;28;20172;-64
2020/12/11 00:46:01;;;;;;;14.20;10.07;;;1.40;99.90;;;;;;5000799;28;20196;-66
2020/12/11 00:48:27;;;;;;;14.50;8.77;;;1.40;99.90;;;;;;4995937;28;20188;-66
2020/12/11 00:50:52;;;;;;;15.27;9.97;;;1.40;99.90;;;;;;5014247;28;20176;-64
2020/12/11 00:53:18;;;;;;;17.23;10.13;;;1.50;99.90;;;;;;5014198;28;20187;-64
2020/12/11 00:55:43;;;;;;;14.20;10.17;;;1.50;99.90;;;;;;4995393;28;20211;-66
2020/12/11 00:58:09;;;;;;;12.03;9.07;;;1.50;99.90;;;;;;4995289;28;20228;-66
2020/12/11 01:00:35;;;;;;;14.23;10.20;;;1.50;99.90;;;;;;5013490;28;20630;-64
2020/12/11 01:03:00;;;;;;;12.60;10.10;;;1.50;99.90;;;;;;5014096;28;20176;-63
2020/12/11 01:05:26;;;;;;;16.77;11.17;;;1.50;99.90;;;;;;4997785;28;20555;-66
2020/12/11 01:07:52;;;;;;;15.90;10.33;;;1.50;99.90;;;;;;4994463;28;20177;-67
2020/12/11 01:10:17;;;;;;;18.77;11.07;;;1.60;99.90;;;;;;5010042;28;20180;-66
2020/12/11 01:12:43;;;;;;;19.47;11.50;;;1.60;99.90;;;;;;5013144;28;20172;-65
2020/12/11 01:15:08;;;;;;;15.80;10.47;;;1.60;99.90;;;;;;5011055;28;20596;-64
2020/12/11 01:17:34;;;;;;;18.37;11.80;;;1.60;99.90;;;;;;5012999;28;20243;-66
2020/12/11 01:20:00;;;;;;;19.60;11.80;;;1.60;99.90;;;;;;4999253;28;20188;-65
2020/12/11 01:22:25;;;;;;;14.77;11.30;;;1.60;99.90;;;;;;4993389;28;20181;-63
2020/12/11 01:24:51;;;;;;;18.00;12.57;;;1.60;99.90;;;;;;5005237;28;20184;-66
2020/12/11 01:27:17;;;;;;;16.93;11.50;;;1.60;99.90;;;;;;5012369;28;20231;-62
2020/12/11 01:29:42;;;;;;;17.50;12.83;;;1.60;99.90;;;;;;5002534;28;20185;-64
2020/12/11 01:32:08;;;;;;;18.90;12.67;;;1.60;99.90;;;;;;4992740;28;20176;-66
2020/12/11 01:34:33;;;;;;;14.63;11.47;;;1.60;99.90;;;;;;4999458;28;20195;-66
2020/12/11 01:37:06;;;;;;;19.13;12.40;;;1.60;99.90;;;;;;5012595;28;20204;-67
2020/12/11 01:39:32;;;;;;;17.80;12.83;;;1.70;99.90;;;;;;4995721;28;20181;-65
2020/12/11 01:41:59;;;;;;;18.73;11.90;;;1.70;99.90;;;;;;4992642;28;20179;-66
2020/12/11 01:44:24;;;;;;;18.27;12.10;;;1.70;99.90;;;;;;5006848;28;20184;-66
2020/12/11 01:46:50;;;;;;;17.07;11.90;;;1.70;99.90;;;;;;5012572;28;20200;-66
2020/12/11 01:49:17;;;;;;;16.13;11.63;;;1.60;99.90;;;;;;4999642;28;20218;-66
2020/12/11 01:51:44;;;;;;;16.53;11.60;;;1.60;99.90;;;;;;4992420;28;20185;-66
2020/12/11 01:54:10;;;;;;;16.83;11.43;;;1.70;99.90;;;;;;5004106;28;20704;-66
2020/12/11 01:57:00;;;;;;;15.07;10.73;;;1.70;99.90;;;;;;5012098;28;20215;-65
2020/12/11 01:59:48;;;;;;;14.07;10.67;;;1.70;99.90;;;;;;4999471;28;20185;-65
2020/12/11 02:02:14;;;;;;;14.90;10.57;;;1.60;99.90;;;;;;4992935;28;20193;-66
2020/12/11 02:04:40;;;;;;;15.03;10.77;;;1.60;99.90;;;;;;5007318;28;20263;-67
2020/12/11 02:07:06;;;;;;;15.20;10.40;;;1.60;99.90;;;;;;5011180;28;20203;-65
2020/12/11 02:09:36;;;;;;;15.93;10.83;;;1.60;99.90;;;;;;5000114;28;20205;-64
2020/12/11 02:12:03;;;;;;;15.93;11.10;;;1.60;99.90;;;;;;4992883;28;20521;-66
2020/12/11 02:14:29;;;;;;;16.43;11.17;;;1.60;99.90;;;;;;5004333;28;20234;-65
2020/12/11 02:17:06;;;;;;;17.33;11.93;;;1.60;99.90;;;;;;5012448;28;20211;-66
2020/12/11 02:19:35;;;;;;;15.23;10.40;;;1.60;99.90;;;;;;5000914;28;20177;-66
2020/12/11 02:22:05;;;;;;;14.83;10.30;;;1.60;99.90;;;;;;4992864;28;20229;-66
2020/12/11 02:24:31;;;;;;;17.03;12.10;;;1.60;99.90;;;;;;5003787;28;20176;-65
2020/12/11 02:26:58;;;;;;;16.33;12.07;;;1.50;99.90;;;;;;5011452;28;20203;-66
2020/12/11 02:29:24;;;;;;;16.47;11.13;;;1.50;99.90;;;;;;4994847;28;21047;-67
2020/12/11 02:31:51;;;;;;;19.00;10.93;;;1.50;99.90;;;;;;4992987;28;20708;-66
2020/12/11 02:34:17;;;;;;;17.83;9.37;;;1.40;99.90;;;;;;5008475;28;20188;-67
2020/12/11 02:36:43;;;;;;;15.40;10.83;;;1.30;99.90;;;;;;5012502;28;20203;-65
2020/12/11 02:39:08;;;;;;;15.30;10.90;;;1.30;99.90;;;;;;4997503;28;20177;-66
2020/12/11 02:41:34;;;;;;;16.67;10.90;;;1.20;99.90;;;;;;4992415;28;20169;-67
2020/12/11 02:44:01;;;;;;;15.63;11.47;;;1.10;99.90;;;;;;5005243;28;20239;-66
2020/12/11 02:46:27;;;;;;;16.23;11.43;;;1.10;99.90;;;;;;5011798;28;20196;-66
2020/12/11 02:48:53;;;;;;;19.70;11.90;;;1.00;99.90;;;;;;4992834;28;20195;-66
2020/12/11 02:51:18;;;;;;;17.33;11.03;;;1.00;99.90;;;;;;4992135;28;20189;-66
2020/12/11 02:53:44;;;;;;;17.43;11.67;;;1.00;99.90;;;;;;5011085;28;20192;-66
2020/12/11 02:56:09;;;;;;;18.90;11.97;;;1.00;99.90;;;;;;5010236;28;20223;-65
2020/12/11 02:58:35;;;;;;;18.87;12.73;;;0.90;99.90;;;;;;4996393;28;20188;-67
2020/12/11 03:01:01;;;;;;;18.70;11.47;;;0.90;99.90;;;;;;5013665;28;20188;-67
2020/12/11 03:03:26;;;;;;;18.47;12.30;;;0.90;99.90;;;;;;4999557;28;20184;-64
2020/12/11 03:05:52;;;;;;;17.13;11.67;;;0.90;99.90;;;;;;4995549;28;20220;-63
2020/12/11 03:08:17;;;;;;;18.97;12.17;;;0.80;99.90;;;;;;5007703;28;20188;-64
2020/12/11 03:10:43;;;;;;;15.97;11.13;;;0.80;99.90;;;;;;5015381;28;20172;-67
2020/12/11 03:13:08;;;;;;;19.17;12.13;;;0.80;99.90;;;;;;5004427;28;20196;-65
2020/12/11 03:15:34;;;;;;;18.77;13.50;;;0.80;99.90;;;;;;4995001;28;20554;-65
2020/12/11 03:18:00;;;;;;;16.80;10.97;;;0.80;99.90;;;;;;5004387;28;20210;-66
2020/12/11 03:20:25;;;;;;;19.60;12.50;;;0.80;99.90;;;;;;5014906;28;20191;-64
2020/12/11 03:22:52;;;;;;;16.13;11.77;;;0.80;99.90;;;;;;5007267;28;20185;-66
2020/12/11 03:25:19;;;;;;;19.07;12.90;;;0.80;99.90;;;;;;4994954;28;20177;-66
2020/12/11 03:27:45;;;;;;;17.67;13.20;;;0.80;99.90;;;;;;5000967;28;20184;-66
2020/12/11 03:30:11;;;;;;;20.23;13.20;;;0.90;99.90;;;;;;5014601;28;20184;-66
2020/12/11 03:32:38;;;;;;;21.20;13.00;;;0.90;99.90;;;;;;5010241;28;20195;-64
2020/12/11 03:35:05;;;;;;;18.90;12.47;;;0.90;99.90;;;;;;4995273;28;20260;-64
2020/12/11 03:37:30;;;;;;;24.60;14.47;;;1.00;99.90;;;;;;4998352;28;20266;-62
2020/12/11 03:39:56;;;;;;;19.67;12.87;;;1.00;99.90;;;;;;5014695;28;20168;-62
2020/12/11 03:42:22;;;;;;;20.27;12.57;;;1.00;99.90;;;;;;5012678;28;20184;-64
2020/12/11 03:44:47;;;;;;;23.77;14.17;;;1.10;99.90;;;;;;4995298;28;20631;-64
2020/12/11 03:47:13;;;;;;;18.43;13.23;;;1.10;99.90;;;;;;5002585;28;20258;-63
2020/12/11 03:49:38;;;;;;;16.67;12.10;;;1.10;99.90;;;;;;5014759;28;20543;-62
2020/12/11 03:52:04;;;;;;;16.80;11.67;;;1.20;99.90;;;;;;5007857;28;20372;-64
2020/12/11 03:54:30;;;;;;;16.40;12.20;;;1.20;99.90;;;;;;4994928;28;20177;-67
2020/12/11 03:56:55;;;;;;;17.50;12.20;;;1.20;99.90;;;;;;4998689;28;20204;-60
2020/12/11 03:59:21;;;;;;;18.90;12.63;;;1.20;99.90;;;;;;5013554;28;20646;-65
2020/12/11 04:01:46;;;;;;;19.77;11.37;;;1.30;99.90;;;;;;5011088;28;20180;-60
2020/12/11 04:04:12;;;;;;;20.33;13.17;;;1.30;99.90;;;;;;4994694;28;20188;-64
2020/12/11 04:06:38;;;;;;;15.90;11.50;;;1.20;99.90;;;;;;4995207;28;20200;-66
2020/12/11 04:09:04;;;;;;;16.23;10.87;;;1.20;99.90;;;;;;5014298;28;20259;-63
2020/12/11 04:11:29;;;;;;;18.20;12.73;;;1.20;99.90;;;;;;5013496;28;20176;-65
2020/12/11 04:13:55;;;;;;;18.10;12.53;;;1.10;99.90;;;;;;5013714;28;20718;-66
2020/12/11 04:16:20;;;;;;;18.30;12.10;;;1.10;99.90;;;;;;5013901;28;20220;-63
2020/12/11 04:18:46;;;;;;;15.53;10.67;;;1.00;99.90;;;;;;4996532;28;20548;-65
2020/12/11 04:21:13;;;;;;;16.60;11.90;;;1.00;99.90;;;;;;4993927;28;20650;-66
2020/12/11 04:23:39;;;;;;;18.63;11.50;;;1.00;99.90;;;;;;5009986;28;20180;-66
2020/12/11 04:26:05;;;;;;;18.67;11.37;;;0.90;99.90;;;;;;5013878;28;20673;-66
2020/12/11 04:28:30;;;;;;;19.93;11.80;;;0.90;99.90;;;;;;4999613;28;20184;-66
2020/12/11 04:30:56;;;;;;;17.63;12.13;;;0.90;99.90;;;;;;4994210;28;20256;-66
2020/12/11 04:33:22;;;;;;;17.47;11.70;;;1.00;99.90;;;;;;5006225;28;20600;-66
2020/12/11 04:35:47;;;;;;;16.70;11.47;;;0.90;99.90;;;;;;5013818;28;20200;-64
2020/12/11 04:38:13;;;;;;;15.20;11.47;;;0.90;99.90;;;;;;4996806;28;20266;-66
2020/12/11 04:40:38;;;;;;;19.23;12.63;;;0.90;99.90;;;;;;4992422;28;20547;-66
2020/12/11 04:43:04;;;;;;;19.43;12.17;;;0.90;99.90;;;;;;5008570;28;20211;-65
2020/12/11 04:45:30;;;;;;;19.97;12.17;;;0.90;99.90;;;;;;5013555;28;20251;-62
2020/12/11 04:47:56;;;;;;;18.33;12.33;;;0.90;99.90;;;;;;5000115;28;20415;-66
2020/12/11 04:50:22;;;;;;;16.43;10.67;;;0.90;99.90;;;;;;4993593;28;20553;-63
2020/12/11 04:52:48;;;;;;;20.27;13.07;;;0.80;99.90;;;;;;5012516;28;20223;-63
2020/12/11 04:55:19;;;;;;;16.43;12.57;;;0.80;99.90;;;;;;5013114;28;20172;-65
2020/12/11 05:00:14;;;;;;;19.37;13.20;;;1.00;99.90;;;;;;5050899;28;20246;-64
2020/12/11 05:02:41;;;;;;;22.77;12.80;;;1.10;99.90;;;;;;5052856;28;20667;-65
2020/12/11 05:05:07;;;;;;;18.53;12.73;;;1.10;99.90;;;;;;5052467;28;20206;-64
2020/12/11 05:07:33;;;;;;;18.07;12.07;;;1.20;99.90;;;;;;5051714;28;20197;-65
2020/12/11 05:09:59;;;;;;;17.13;12.83;;;1.20;99.90;;;;;;5052353;28;20175;-65
2020/12/11 05:12:25;;;;;;;16.63;12.10;;;1.30;99.90;;;;;;5052306;28;20644;-65
2020/12/11 05:14:58;;;;;;;16.87;12.60;;;1.30;99.90;;;;;;5052587;28;20562;-65
2020/12/11 05:17:32;;;;;;;18.00;12.60;;;1.30;99.90;;;;;;5052212;28;20245;-64
2020/12/11 05:19:59;;;;;;;25.37;14.17;;;1.40;99.90;;;;;;5052425;28;20257;-65
2020/12/11 05:22:35;;;;;;;16.73;12.07;;;1.40;99.90;;;;;;5051472;28;20190;-65
2020/12/11 05:25:02;;;;;;;26.47;14.80;;;1.40;99.90;;;;;;5032256;28;20546;-64
2020/12/11 05:27:28;;;;;;;24.33;14.37;;;1.40;99.90;;;;;;5033204;28;20201;-64
2020/12/11 05:29:54;;;;;;;22.40;13.73;;;1.30;99.90;;;;;;5052085;28;20167;-65
2020/12/11 05:32:37;;;;;;;22.77;14.87;;;1.40;99.90;;;;;;5052065;28;20658;-65
2020/12/11 05:35:06;;;;;;;24.10;14.73;;;1.40;99.90;;;;;;5032340;28;20171;-64
2020/12/11 05:37:43;;;;;;;21.73;13.17;;;1.40;99.90;;;;;;5038342;28;20213;-64
2020/12/11 05:40:44;;;;;;;18.90;12.40;;;1.50;99.90;;;;;;5051869;28;20643;-65
2020/12/11 05:43:21;;;;;;;25.60;14.33;;;1.50;99.90;;;;;;5051791;28;20547;-65
2020/12/11 05:45:52;;;;;;;20.90;13.00;;;1.40;99.90;;;;;;5051843;28;20249;-65
2020/12/11 05:48:21;;;;;;;18.07;12.77;;;1.40;99.90;;;;;;5051682;28;20224;-65
2020/12/11 05:50:47;;;;;;;13.60;10.73;;;1.30;99.90;;;;;;5051654;28;20179;-65
2020/12/11 05:53:13;;;;;;;24.17;13.27;;;1.30;99.90;;;;;;5051496;28;20190;-64
2020/12/11 05:55:39;;;;;;;15.83;11.53;;;1.30;99.90;;;;;;5051872;28;20250;-64
2020/12/11 05:58:09;;;;;;;22.37;13.87;;;1.30;99.90;;;;;;5051548;28;20205;-64
2020/12/11 06:00:34;;;;;;;20.37;13.20;;;1.30;99.90;;;;;;5051750;28;20167;-64
2020/12/11 06:03:01;;;;;;;17.33;12.37;;;1.30;99.90;;;;;;5052815;28;20174;-63
2020/12/11 06:05:27;;;;;;;15.63;12.20;;;1.30;99.90;;;;;;5051439;28;20179;-65
2020/12/11 06:07:53;;;;;;;17.33;10.77;;;1.30;99.90;;;;;;5051211;28;20248;-65
2020/12/11 06:10:23;;;;;;;16.37;11.33;;;1.30;99.90;;;;;;5051376;28;20213;-65
2020/12/11 06:12:50;;;;;;;17.73;10.87;;;1.30;99.90;;;;;;5051849;28;20217;-64
2020/12/11 06:15:21;;;;;;;18.27;13.17;;;1.30;99.90;;;;;;5051512;28;20174;-64
2020/12/11 06:18:23;;;;;;;17.07;12.10;;;1.30;99.90;;;;;;5051233;28;20242;-65
2020/12/11 06:20:53;;;;;;;20.83;12.50;;;1.30;99.90;;;;;;5051264;28;20659;-64
2020/12/11 06:23:28;;;;;;;16.57;11.80;;;1.30;99.90;;;;;;5051125;28;20243;-65
2020/12/11 06:26:02;;;;;;;16.90;12.20;;;1.30;99.90;;;;;;5051438;28;20190;-65
2020/12/11 06:28:53;;;;;;;16.50;12.20;;;1.30;99.90;;;;;;5051242;28;20177;-64
2020/12/11 06:31:20;;;;;;;20.87;11.57;;;1.30;99.90;;;;;;5050984;28;20179;-65
2020/12/11 06:33:54;;;;;;;19.20;11.43;;;1.30;99.90;;;;;;5051281;28;20545;-65
2020/12/11 06:36:20;;;;;;;19.30;11.67;;;1.30;99.90;;;;;;5054618;28;20260;-65
2020/12/11 06:38:54;;;;;;;17.27;11.67;;;1.30;99.90;;;;;;5055481;28;20173;-64
2020/12/11 06:41:32;;;;;;;18.43;12.73;;;1.30;99.90;;;;;;5054852;28;20181;-65
2020/12/11 06:44:10;;;;;;;17.50;11.20;;;1.30;99.90;;;;;;5056431;28;20162;-64
2020/12/11 06:46:36;;;;;;;19.37;11.33;;;1.30;99.90;;;;;;5056078;28;20209;-64
2020/12/11 06:49:12;;;;;;;20.13;10.87;;;1.30;99.90;;;;;;5055049;28;20229;-64
2020/12/11 06:51:46;;;;;;;18.47;13.37;;;1.40;99.90;;;;;;5054505;28;20202;-64
2020/12/11 06:54:21;;;;;;;18.03;11.93;;;1.40;99.90;;;;;;5054974;28;20253;-64
2020/12/11 06:56:55;;;;;;;16.37;12.23;;;1.50;99.90;;;;;;5054650;28;20202;-65
2020/12/11 06:59:33;;;;;;;16.80;11.83;;;1.70;99.90;;;;;;5054425;28;20615;-64
2020/12/11 07:02:05;;;;;;;13.97;10.90;;;1.70;99.90;;;;;;5054667;28;20170;-64
2020/12/11 07:04:44;;;;;;;18.60;12.33;;;1.80;99.90;;;;;;5054600;28;20175;-64
2020/12/11 07:07:10;;;;;;;16.77;11.57;;;1.90;99.90;;;;;;5053442;28;20561;-64
2020/12/11 07:09:39;;;;;;;17.80;12.67;;;1.90;99.90;;;;;;5054245;28;20187;-64
2020/12/11 07:12:05;;;;;;;15.77;11.20;;;2.00;99.90;;;;;;5054468;28;20256;-65
2020/12/11 07:14:31;;;;;;;17.27;11.07;;;2.10;99.90;;;;;;5054414;28;20236;-65
2020/12/11 07:16:56;;;;;;;20.50;12.20;;;2.10;99.90;;;;;;5054606;28;20236;-64
2020/12/11 07:19:22;;;;;;;16.70;12.23;;;2.10;99.90;;;;;;5054376;28;20246;-64
2020/12/11 07:21:49;;;;;;;15.70;11.07;;;2.10;99.90;;;;;;5054176;28;20647;-65
2020/12/11 07:24:15;;;;;;;15.00;11.67;;;2.10;99.90;;;;;;5054148;28;20186;-65
2020/12/11 07:26:41;;;;;;;15.43;10.30;;;2.10;99.90;;;;;;5054168;28;20687;-65
2020/12/11 07:29:09;;;;;;;14.90;11.97;;;2.10;99.90;;;;;;5053936;28;20179;-64
2020/12/11 07:31:46;;;;;;;15.90;11.67;;;2.10;99.90;;;;;;5054031;28;20282;-65
2020/12/11 07:34:20;;;;;;;13.77;10.33;;;2.10;99.90;;;;;;5054002;28;20659;-65
2020/12/11 07:36:54;;;;;;;14.13;10.80;;;2.10;99.90;;;;;;5056000;28;20198;-64
2020/12/11 07:39:21;;;;;;;16.77;10.93;;;2.10;99.90;;;;;;5054970;28;20170;-65
2020/12/11 07:41:48;;;;;;;15.07;11.17;;;2.10;99.90;;;;;;5055357;28;20194;-64
2020/12/11 07:44:22;;;;;;;13.87;10.53;;;2.10;99.90;;;;;;5054135;28;20225;-65
2020/12/11 07:46:48;;;;;;;15.33;9.97;;;2.20;99.90;;;;;;5053730;28;20652;-65
2020/12/11 07:49:14;;;;;;;16.07;10.70;;;2.20;99.90;;;;;;5053536;28;20212;-65
2020/12/11 07:51:50;;;;;;;14.70;10.03;;;2.20;99.90;;;;;;5053743;28;20653;-64
2020/12/11 07:54:17;;;;;;;15.90;10.80;;;2.30;99.90;;;;;;5053483;28;20578;-65
2020/12/11 07:56:43;;;;;;;14.60;10.07;;;2.40;99.90;;;;;;5053821;28;20211;-65
2020/12/11 07:59:12;;;;;;;14.63;10.07;;;2.50;99.90;;;;;;5053436;28;20191;-65
2020/12/11 08:01:48;;;;;;;15.10;11.23;;;2.50;99.90;;;;;;5053525;28;20179;-64
2020/12/11 08:04:14;;;;;;;16.80;11.07;;;2.60;99.90;;;;;;5053598;28;20174;-65
2020/12/11 08:06:39;;;;;;;16.13;10.20;;;2.70;99.90;;;;;;5053204;28;20581;-65
2020/12/11 08:09:12;;;;;;;20.00;11.50;;;2.70;99.90;;;;;;5053307;28;20366;-65
2020/12/11 08:11:42;;;;;;;15.07;10.30;;;2.80;99.90;;;;;;5033402;28;20655;-65
2020/12/11 08:14:08;;;;;;;14.43;10.03;;;2.80;99.90;;;;;;5049935;28;20179;-65
2020/12/11 08:16:34;;;;;;;14.90;10.27;;;2.90;99.90;;;;;;5053726;28;20237;-65
2020/12/11 08:19:01;;;;;;;13.90;10.40;;;2.90;99.90;;;;;;5053067;28;20264;-64
2020/12/11 08:21:31;;;;;;;12.80;10.27;;;3.00;99.90;;;;;;5053006;28;20199;-65
2020/12/11 08:23:57;;;;;;;15.20;11.23;;;3.00;99.90;;;;;;5033510;28;20179;-65
2020/12/11 08:26:24;;;;;;;14.23;9.93;;;3.00;99.90;;;;;;5033281;28;20656;-65
2020/12/11 08:29:02;;;;;;;16.93;11.17;;;3.00;99.90;;;;;;5051845;28;20201;-64
2020/12/11 08:31:28;;;;;;;13.77;10.53;;;3.00;99.90;;;;;;5052560;28;20198;-65
2020/12/11 08:34:12;;;;;;;13.97;9.83;;;3.10;99.90;;;;;;5053306;28;20180;-65
2020/12/11 08:36:45;;;;;;;13.87;10.30;;;3.10;99.90;;;;;;5052940;28;20606;-65
2020/12/11 08:39:13;;;;;;;14.00;10.27;;;3.20;99.90;;;;;;5052992;28;20163;-65
2020/12/11 08:42:00;;;;;;;14.80;10.70;;;3.20;99.90;;;;;;5052446;28;20577;-65
2020/12/11 08:49:43;;;;;;;14.43;10.67;;;3.30;99.90;;;;;;5052652;28;20461;-64
2020/12/11 08:52:10;;;;;;;11.87;9.17;;;3.40;99.90;;;;;;5052602;28;20272;-65
2020/12/11 08:54:36;;;;;;;14.00;10.43;;;3.40;99.90;;;;;;5052594;28;20185;-65
2020/12/11 08:57:01;;;;;;;14.23;10.90;;;3.50;99.90;;;;;;5051631;28;20576;-65
2020/12/11 08:59:27;;;;;;;11.70;9.90;;;3.50;99.90;;;;;;5052178;28;20727;-65
2020/12/11 09:01:52;;;;;;;14.53;10.10;;;3.50;99.90;;;;;;5052486;28;20163;-64
2020/12/11 09:04:18;;;;;;;13.30;9.57;;;3.50;99.90;;;;;;5052220;28;20171;-65
2020/12/11 09:06:44;;;;;;;16.03;10.50;;;3.60;99.90;;;;;;5052483;28;20199;-65
2020/12/11 09:09:10;;;;;;;13.63;9.90;;;3.60;99.90;;;;;;5052627;28;20170;-64
2020/12/11 09:11:36;;;;;;;13.97;9.33;;;3.60;99.90;;;;;;5051743;28;20648;-65
2020/12/11 09:14:02;;;;;;;13.03;9.90;;;3.60;99.90;;;;;;5052437;28;20258;-65
2020/12/11 09:16:27;;;;;;;16.53;10.50;;;3.60;99.90;;;;;;5051989;28;20625;-65
2020/12/11 09:18:53;;;;;;;18.23;11.73;;;3.60;99.90;;;;;;5050900;28;20557;-65
2020/12/11 09:21:19;;;;;;;12.00;9.83;;;3.70;99.90;;;;;;5051530;28;20246;-65
2020/12/11 09:23:44;;;;;;;11.83;8.80;;;3.70;99.90;;;;;;5052244;28;20193;-65
2020/12/11 09:26:12;;;;;;;14.00;10.57;;;3.80;99.90;;;;;;5051738;28;20182;-65
2020/12/11 09:28:39;;;;;;;13.20;8.80;;;3.80;99.90;;;;;;5052142;28;20232;-64
2020/12/11 09:31:05;;;;;;;10.80;8.40;;;3.80;99.90;;;;;;5051557;28;20209;-65
2020/12/11 09:33:36;;;;;;;13.57;10.17;;;3.80;99.90;;;;;;5032132;28;20175;-65
2020/12/11 09:36:03;;;;;;;10.63;8.37;;;3.80;99.90;;;;;;5037155;28;20183;-64
2020/12/11 09:38:29;;;;;;;13.43;9.13;;;3.80;99.90;;;;;;5051893;28;20198;-65
2020/12/11 09:41:00;;;;;;;12.80;9.47;;;3.90;99.90;;;;;;5051435;28;20186;-65
2020/12/11 09:48:43;;;;;;;13.63;9.40;;;4.00;99.90;;;;;;5051965;28;20185;-65
2020/12/11 09:52:02;;;;;;;11.90;9.43;;;4.00;99.90;;;;;;5051407;28;20170;-65
2020/12/11 09:56:55;;;;;;;13.43;9.43;;;4.10;99.90;;;;;;5017978;28;20284;-65
2020/12/11 09:59:28;;;;;;;12.40;8.90;;;4.20;99.90;;;;;;5050929;28;20194;-65
2020/12/11 10:04:24;;;;;;;10.90;8.97;;;4.40;99.90;;;;;;5044607;28;20176;-65
2020/12/11 10:06:50;;;;;;;9.87;8.47;;;4.50;99.90;;;;;;5038146;28;20649;-65
2020/12/11 10:09:16;;;;;;;10.10;8.13;;;4.50;99.90;;;;;;5050951;28;20250;-65
2020/12/11 10:11:42;;;;;;;13.17;8.63;;;4.60;99.90;;;;;;5050896;28;20655;-65
2020/12/11 10:14:24;;;;;;;10.83;8.13;;;4.70;99.90;;;;;;5051450;28;20175;-65
2020/12/11 10:16:52;;;;;;;10.23;7.43;;;4.80;99.90;;;;;;5051312;28;20683;-65
2020/12/11 10:19:18;;;;;;;10.47;7.77;;;4.80;99.90;;;;;;5051164;28;20640;-65
2020/12/11 10:21:48;;;;;;;8.67;7.57;;;4.70;99.90;;;;;;5049398;28;20305;-64
2020/12/11 10:24:15;;;;;;;10.23;7.97;;;4.70;99.90;;;;;;5051311;28;20185;-65
2020/12/11 10:26:41;;;;;;;7.80;6.53;;;4.70;99.90;;;;;;5051178;28;20202;-65
2020/12/11 10:29:07;;;;;;;11.90;7.83;;;4.60;99.90;;;;;;5051279;28;20237;-62
2020/12/11 10:31:33;;;;;;;11.60;7.87;;;4.60;99.90;;;;;;5050706;28;20175;-65
2020/12/11 10:33:58;;;;;;;8.77;7.53;;;4.60;99.90;;;;;;5051344;28;20179;-65
2020/12/11 10:36:31;;;;;;;11.83;8.23;;;4.60;99.90;;;;;;5051228;28;20621;-65
2020/12/11 10:38:58;;;;;;;10.40;7.87;;;4.60;99.90;;;;;;5051287;28;20183;-65
2020/12/11 10:41:24;;;;;;;10.57;8.27;;;4.70;99.90;;;;;;5051454;28;20167;-65
2020/12/11 10:43:51;;;;;;;11.80;8.07;;;4.70;99.90;;;;;;5051083;28;20175;-65
2020/12/11 10:46:17;;;;;;;10.30;8.03;;;4.70;99.90;;;;;;5051162;28;20226;-65
2020/12/11 10:48:43;;;;;;;9.97;7.83;;;4.80;99.90;;;;;;5051284;28;20702;-65
2020/12/11 10:51:11;;;;;;;9.00;7.67;;;4.80;99.90;;;;;;5050251;28;20690;-65
2020/12/11 10:53:36;;;;;;;10.97;8.20;;;4.90;99.90;;;;;;5051005;28;20175;-63
2020/12/11 10:56:06;;;;;;;9.30;7.57;;;4.90;99.90;;;;;;5050980;28;20263;-65
2020/12/11 10:58:32;;;;;;;9.47;7.20;;;4.90;99.90;;;;;;5058727;22;20268;-66
2020/12/11 11:00:58;;;;;;;9.13;6.87;;;4.80;99.90;;;;;;5050817;28;20183;-66
2020/12/11 11:03:27;;;;;;;7.97;6.87;;;4.80;99.90;;;;;;5051003;28;20170;-65
2020/12/11 11:05:53;;;;;;;8.67;7.10;;;4.70;99.90;;;;;;5050993;28;20163;-65
2020/12/11 11:08:19;;;;;;;7.93;6.60;;;4.70;99.90;;;;;;5050707;28;20179;-66
2020/12/11 11:10:48;;;;;;;8.57;6.67;;;4.70;99.90;;;;;;5050775;28;20179;-65
2020/12/11 11:15:52;;;;;;;8.77;6.97;;;4.70;99.90;;;;;;5051219;28;20206;-66
2020/12/11 11:20:57;;;;;;;9.97;7.13;;;4.70;99.90;;;;;;5051697;28;20178;-66
2020/12/11 11:26:18;;;;;;;7.83;6.23;;;4.70;99.90;;;;;;5054419;28;20178;-66
2020/12/11 11:28:43;;;;;;;8.37;6.17;;;4.80;99.90;;;;;;5054384;28;20182;-66
2020/12/11 11:31:11;;;;;;;8.37;6.50;;;4.80;99.90;;;;;;5054017;28;20167;-66
2020/12/11 11:33:37;;;;;;;9.73;7.70;;;4.90;99.90;;;;;;5054182;28;20173;-66
2020/12/11 11:36:02;;;;;;;7.50;6.67;;;4.90;99.90;;;;;;5054291;28;20192;-63
2020/12/11 11:38:28;;;;;;;8.27;6.17;;;5.00;99.90;;;;;;5053932;28;20210;-63
2020/12/11 11:40:54;;;;;;;9.60;6.67;;;5.00;99.90;;;;;;5054107;28;20179;-63
2020/12/11 11:46:04;;;;;;;9.27;6.63;;;5.10;99.90;;;;;;5054341;28;20647;-65
2020/12/11 11:48:29;;;;;;;8.50;6.53;;;5.20;99.90;;;;;;5054080;28;20190;-65
2020/12/11 11:51:04;;;;;;;8.57;6.23;;;5.20;99.90;;;;;;5053106;28;20179;-66
2020/12/11 11:53:30;;;;;;;8.33;6.73;;;5.20;99.90;;;;;;5053890;28;20266;-66
2020/12/11 11:55:56;;;;;;;7.83;5.97;;;5.30;99.90;;;;;;5053797;28;20246;-64
2020/12/11 11:58:21;;;;;;;7.63;5.73;;;5.30;99.90;;;;;;5053429;28;20478;-65
2020/12/11 12:00:47;;;;;;;8.80;6.40;;;5.40;99.90;;;;;;5052290;28;20572;-65
2020/12/11 12:03:12;;;;;;;8.07;6.30;;;5.60;99.90;;;;;;5053642;28;20163;-66
2020/12/11 12:05:40;;;;;;;8.10;6.30;;;5.80;99.90;;;;;;5053548;28;20169;-66
2020/12/11 12:08:06;;;;;;;8.40;6.23;;;5.90;99.90;;;;;;5053601;28;20174;-66
2020/12/11 12:10:31;;;;;;;7.03;5.40;;;6.00;99.90;;;;;;5052131;28;20822;-65
2020/12/11 12:12:57;;;;;;;7.53;5.77;;;6.10;99.90;;;;;;5053985;28;20193;-66
2020/12/11 12:15:25;;;;;;;7.93;6.07;;;6.10;99.90;;;;;;5053376;28;20175;-64
2020/12/11 12:18:04;;;;;;;7.53;5.83;;;6.20;99.90;;;;;;5053280;28;20389;-65
2020/12/11 12:23:33;;;;;;;7.17;5.67;;;6.40;99.90;;;;;;5052858;28;20167;-63
2020/12/11 12:28:58;;;;;;;6.37;5.33;;;6.60;99.90;;;;;;5052881;28;20737;-63
2020/12/11 12:31:38;;;;;;;6.03;5.43;;;6.70;99.90;;;;;;5052432;28;20182;-63
2020/12/11 12:44:39;;;;;;;8.00;6.27;;;7.10;99.90;;;;;;5048098;28;20562;-65
2020/12/11 12:47:04;;;;;;;9.97;6.03;;;7.20;99.90;;;;;;5052598;28;20182;-63
2020/12/11 12:49:30;;;;;;;5.43;4.90;;;7.20;99.90;;;;;;5052849;28;20199;-63
2020/12/11 12:51:56;;;;;;;10.23;5.60;;;7.10;99.90;;;;;;5052434;28;20179;-63
2020/12/11 12:54:21;;;;;;;7.40;5.43;;;7.00;99.90;;;;;;5051785;28;20209;-63
2020/12/11 12:56:53;;;;;;;8.87;5.27;;;7.00;99.90;;;;;;5052177;28;20220;-63
2020/12/11 13:02:03;;;;;;;7.53;6.10;;;6.90;99.90;;;;;;5052201;28;20177;-64
2020/12/11 13:06:57;;;;;;;6.40;5.80;;;6.90;99.90;;;;;;5052141;28;20174;-63
2020/12/11 13:09:23;;;;;;;6.50;5.80;;;6.90;99.90;;;;;;5051605;28;20255;-64
2020/12/11 13:11:50;;;;;;;7.00;5.73;;;6.80;99.90;;;;;;5051625;28;20208;-63
2020/12/11 13:14:16;;;;;;;6.63;5.23;;;6.60;99.90;;;;;;5052267;28;20584;-64
2020/12/11 13:16:41;;;;;;;6.27;5.00;;;6.50;99.90;;;;;;5052030;28;20230;-64
2020/12/11 13:19:10;;;;;;;6.33;5.50;;;6.50;99.90;;;;;;5051410;28;20196;-64
2020/12/11 13:21:40;;;;;;;7.27;5.53;;;6.50;99.90;;;;;;5051594;28;20175;-63
2020/12/11 13:26:53;;;;;;;6.03;5.37;;;6.40;99.90;;;;;;5051813;28;20240;-64
2020/12/11 13:29:18;;;;;;;8.67;5.73;;;6.40;99.90;;;;;;5051530;28;20190;-65
2020/12/11 13:31:45;;;;;;;5.80;4.90;;;6.40;99.90;;;;;;5050965;28;20304;-64
2020/12/11 13:34:11;;;;;;;5.83;5.23;;;6.40;99.90;;;;;;5051462;28;20181;-64
2020/12/11 13:36:36;;;;;;;7.03;5.67;;;6.40;99.90;;;;;;5051822;28;20175;-65
2020/12/11 13:39:04;;;;;;;7.93;5.80;;;6.30;99.90;;;;;;5050774;28;20277;-64
2020/12/11 13:41:30;;;;;;;7.83;5.60;;;6.30;99.90;;;;;;5051670;28;20181;-64